createdAt,value
2019-03-20T00:00:18.503Z,1.60
2019-03-20T00:02:51.925Z,1.40
2019-03-20T00:05:26.159Z,1.40
2019-03-20T00:07:59.414Z,1.50
2019-03-20T00:10:29.281Z,1.60
2019-03-20T00:12:59.894Z,1.70
2019-03-20T00:18:13.612Z,1.70
2019-03-20T00:20:43.736Z,1.70
2019-03-20T00:23:24.139Z,1.80
2019-03-20T00:25:58.871Z,1.80
2019-03-20T00:36:19.911Z,1.70
2019-03-20T00:38:49.672Z,1.70
2019-03-20T00:41:19.870Z,1.70
2019-03-20T00:43:51.323Z,1.60
2019-03-20T00:46:21.459Z,1.70
2019-03-20T00:48:55.405Z,1.70
2019-03-20T00:51:29.851Z,1.70
2019-03-20T00:54:00.279Z,1.60
2019-03-20T00:56:30.562Z,1.70
2019-03-20T00:59:02.390Z,1.70
2019-03-20T01:01:32.862Z,1.70
2019-03-20T01:04:11.712Z,1.60
2019-03-20T01:09:17.702Z,1.60
2019-03-20T01:11:52.859Z,1.60
2019-03-20T01:14:22.630Z,1.50
2019-03-20T01:16:53.039Z,1.60
2019-03-20T01:19:24.881Z,1.50
2019-03-20T01:21:55.683Z,1.50
2019-03-20T01:24:25.564Z,1.50
2019-03-20T01:26:55.230Z,1.60
2019-03-20T01:29:26.303Z,1.50
2019-03-20T01:31:55.839Z,1.50
2019-03-20T01:34:26.300Z,1.50
2019-03-20T01:36:56.669Z,1.50
2019-03-20T01:39:26.370Z,1.50
2019-03-20T01:41:56.228Z,1.30
2019-03-20T01:44:26.121Z,1.20
2019-03-20T01:46:55.903Z,1.00
2019-03-20T01:49:26.144Z,1.00
2019-03-20T01:51:55.727Z,1.20
2019-03-20T01:54:25.676Z,1.30
2019-03-20T01:56:57.689Z,1.30
2019-03-20T01:59:27.654Z,1.30
2019-03-20T02:01:57.935Z,1.30
2019-03-20T02:04:30.028Z,1.40
2019-03-20T02:06:59.837Z,1.40
2019-03-20T02:09:29.897Z,1.30
2019-03-20T02:12:00.134Z,1.40
2019-03-20T02:14:29.917Z,1.40
2019-03-20T02:16:59.604Z,1.40
2019-03-20T02:19:29.266Z,1.30
2019-03-20T02:22:14.702Z,1.30
2019-03-20T02:24:44.342Z,1.40
2019-03-20T02:27:15.240Z,1.40
2019-03-20T02:29:44.381Z,1.30
2019-03-20T02:32:13.792Z,1.40
2019-03-20T02:34:47.101Z,1.40
2019-03-20T02:40:50.715Z,1.30
2019-03-20T02:43:20.857Z,1.20
2019-03-20T02:45:50.406Z,1.20
2019-03-20T02:48:19.885Z,1.20
2019-03-20T02:50:49.644Z,1.20
2019-03-20T02:53:19.360Z,1.10
2019-03-20T02:55:49.069Z,1.20
2019-03-20T02:58:19.054Z,1.20
2019-03-20T03:00:49.023Z,1.20
2019-03-20T03:03:18.721Z,1.20
2019-03-20T03:05:48.691Z,1.10
2019-03-20T03:08:19.080Z,1.20
2019-03-20T03:10:48.978Z,1.10
2019-03-20T03:13:18.834Z,1.10
2019-03-20T03:15:48.633Z,1.00
2019-03-20T03:18:18.109Z,1.00
2019-03-20T03:20:47.862Z,1.10
2019-03-20T03:23:17.561Z,1.10
2019-03-20T03:25:49.986Z,1.10
2019-03-20T03:28:17.783Z,1.10
2019-03-20T03:30:47.191Z,1.10
2019-03-20T03:33:17.169Z,1.00
2019-03-20T03:35:46.469Z,1.00
2019-03-20T03:38:17.220Z,1.00
2019-03-20T03:40:47.030Z,0.90
2019-03-20T03:43:16.706Z,0.90
2019-03-20T03:45:46.312Z,0.90
2019-03-20T03:48:16.176Z,1.00
2019-03-20T03:53:21.910Z,1.00
2019-03-20T03:55:51.713Z,0.80
2019-03-20T03:58:21.273Z,0.80
2019-03-20T04:00:50.926Z,0.70
2019-03-20T04:03:20.812Z,0.50
2019-03-20T04:05:50.767Z,0.50
2019-03-20T04:08:20.417Z,0.60
2019-03-20T04:10:50.518Z,0.50
2019-03-20T04:13:21.015Z,0.70
2019-03-20T04:15:51.366Z,0.70
2019-03-20T04:18:21.240Z,0.80
2019-03-20T04:20:50.743Z,0.80
2019-03-20T04:23:20.478Z,0.70
2019-03-20T04:25:50.126Z,0.70
2019-03-20T04:28:19.759Z,0.70
2019-03-20T04:30:49.691Z,0.80
2019-03-20T04:33:19.264Z,0.80
2019-03-20T04:35:48.973Z,0.60
2019-03-20T04:38:19.100Z,0.50
2019-03-20T04:40:48.890Z,0.60
2019-03-20T04:43:19.058Z,0.60
2019-03-20T04:45:48.722Z,0.60
2019-03-20T04:48:18.208Z,0.60
2019-03-20T04:50:47.713Z,0.50
2019-03-20T04:53:17.566Z,0.60
2019-03-20T04:55:47.059Z,0.70
2019-03-20T04:58:16.506Z,0.60
2019-03-20T05:00:46.907Z,0.60
2019-03-20T05:03:16.313Z,0.70
2019-03-20T05:05:45.761Z,0.70
2019-03-20T05:08:15.038Z,0.80
2019-03-20T05:10:45.592Z,0.70
2019-03-20T05:13:15.030Z,0.50
2019-03-20T05:15:44.464Z,0.40
2019-03-20T05:18:13.763Z,0.40
2019-03-20T05:20:43.193Z,0.30
2019-03-20T05:23:12.517Z,0.40
2019-03-20T05:25:42.537Z,0.40
2019-03-20T05:28:11.879Z,0.50
2019-03-20T05:30:41.321Z,0.40
2019-03-20T05:33:11.422Z,0.50
2019-03-20T05:35:41.352Z,0.50
2019-03-20T05:38:11.108Z,0.50
2019-03-20T05:40:40.595Z,0.50
2019-03-20T05:43:10.028Z,0.50
2019-03-20T05:45:39.521Z,0.50
2019-03-20T05:48:08.974Z,0.50
2019-03-20T05:50:38.957Z,0.60
2019-03-20T05:53:10.748Z,0.60
2019-03-20T05:55:40.869Z,0.60
2019-03-20T05:58:10.560Z,0.60
2019-03-20T06:00:40.517Z,0.60
2019-03-20T06:03:10.320Z,0.70
2019-03-20T06:05:39.717Z,0.70
2019-03-20T06:08:09.993Z,0.80
2019-03-20T06:10:39.617Z,0.80
2019-03-20T06:13:09.286Z,0.80
2019-03-20T06:15:38.568Z,0.90
2019-03-20T06:18:07.819Z,0.90
2019-03-20T06:20:37.486Z,1.00
2019-03-20T06:23:06.914Z,1.00
2019-03-20T06:25:36.642Z,1.00
2019-03-20T06:28:06.166Z,1.00
2019-03-20T06:30:36.648Z,1.00
2019-03-20T06:33:06.232Z,1.10
2019-03-20T06:35:36.023Z,1.10
2019-03-20T06:38:06.186Z,1.20
2019-03-20T06:40:35.847Z,1.30
2019-03-20T06:43:05.802Z,1.30
2019-03-20T06:45:36.635Z,1.30
2019-03-20T06:48:06.539Z,1.40
2019-03-20T06:50:37.054Z,1.40
2019-03-20T06:53:06.897Z,1.40
2019-03-20T06:55:36.569Z,1.50
2019-03-20T06:58:06.561Z,1.60
2019-03-20T07:01:01.838Z,1.70
2019-03-20T07:03:46.857Z,1.70
2019-03-20T07:06:35.984Z,1.80
2019-03-20T07:09:16.354Z,1.90
2019-03-20T07:14:21.964Z,2.00
2019-03-20T07:16:52.163Z,2.00
2019-03-20T07:19:25.663Z,1.90
2019-03-20T07:22:04.153Z,2.10
2019-03-20T07:24:32.053Z,2.30
2019-03-20T07:27:04.255Z,2.40
2019-03-20T07:29:36.674Z,2.50
2019-03-20T07:32:32.610Z,2.50
2019-03-20T07:54:45.442Z,3.30
2019-03-20T07:57:59.409Z,3.50
2019-03-20T08:01:15.868Z,3.60
2019-03-20T08:04:18.278Z,3.80
2019-03-20T08:06:51.774Z,3.90
2019-03-20T09:01:06.601Z,5.30
2019-03-20T09:09:44.859Z,5.60
2019-03-20T09:19:32.049Z,6.00
2019-03-20T09:30:12.342Z,6.30
2019-03-20T09:36:56.961Z,6.30
2019-03-20T09:43:23.229Z,6.40
2019-03-20T09:45:56.903Z,6.50
2019-03-20T09:49:55.861Z,6.60
2019-03-20T09:56:08.412Z,6.70
2019-03-20T09:58:39.028Z,6.80
2019-03-20T10:01:08.902Z,6.70
2019-03-20T10:03:40.023Z,6.80
2019-03-20T10:06:10.314Z,6.80
2019-03-20T10:08:39.990Z,6.90
2019-03-20T10:11:10.054Z,6.90
2019-03-20T10:13:52.321Z,6.90
2019-03-20T10:16:22.660Z,6.90
2019-03-20T10:18:54.385Z,6.90
2019-03-20T10:21:32.800Z,6.80
2019-03-20T10:26:48.737Z,6.90
2019-03-20T10:29:42.654Z,7.00
2019-03-20T10:32:19.190Z,7.10
2019-03-20T10:34:49.818Z,7.10
2019-03-20T10:37:22.380Z,7.10
2019-03-20T10:39:52.625Z,7.10
2019-03-20T10:42:22.773Z,7.10
2019-03-20T10:44:52.754Z,7.30
2019-03-20T10:47:23.221Z,7.20
2019-03-20T10:49:54.646Z,7.30
2019-03-20T10:52:32.663Z,7.30
2019-03-20T10:55:03.127Z,7.40
2019-03-20T10:57:34.002Z,7.40
2019-03-20T11:00:17.152Z,7.50
2019-03-20T11:02:50.585Z,7.50
2019-03-20T11:05:24.726Z,7.40
2019-03-20T11:07:55.688Z,7.40
2019-03-20T11:10:36.781Z,7.40
2019-03-20T11:13:13.646Z,7.40
2019-03-20T11:15:43.836Z,7.60
2019-03-20T11:18:13.561Z,7.60
2019-03-20T11:20:43.389Z,7.60
2019-03-20T11:23:13.391Z,7.70
2019-03-20T11:25:43.021Z,7.70
2019-03-20T11:28:14.074Z,7.80
2019-03-20T11:31:16.118Z,7.80
2019-03-20T11:34:07.151Z,7.80
2019-03-20T11:36:22.541Z,7.90
2019-03-20T11:38:52.267Z,7.90
2019-03-20T11:41:22.725Z,7.90
2019-03-20T11:44:08.684Z,8.00
2019-03-20T11:46:56.240Z,8.00
2019-03-20T11:52:58.472Z,8.00
2019-03-20T11:56:05.474Z,8.00
2019-03-20T12:11:45.978Z,8.00
2019-03-20T12:14:11.963Z,8.10
2019-03-20T12:19:45.087Z,8.10
2019-03-20T12:23:02.001Z,8.20
2019-03-20T12:32:42.276Z,8.30
2019-03-20T12:35:47.254Z,8.30
2019-03-20T12:38:35.306Z,8.30
2019-03-20T12:41:08.783Z,8.40
2019-03-20T12:44:42.282Z,8.40
2019-03-20T12:57:13.235Z,8.60
2019-03-20T13:21:52.273Z,9.00
2019-03-20T13:24:49.607Z,9.10
2019-03-20T13:27:40.472Z,9.20
2019-03-20T13:33:42.664Z,9.30
2019-03-20T13:37:03.695Z,9.40
2019-03-20T13:39:31.017Z,9.40
2019-03-20T13:45:18.531Z,9.50
2019-03-20T13:48:40.313Z,9.40
2019-03-20T14:00:36.303Z,9.40
2019-03-20T14:15:20.753Z,9.40
2019-03-20T14:26:06.290Z,9.40
2019-03-20T14:31:57.194Z,9.40
2019-03-20T14:35:02.940Z,9.40
2019-03-20T14:37:40.574Z,9.40
2019-03-20T14:40:36.541Z,9.40
2019-03-20T14:47:41.780Z,9.30
2019-03-20T14:59:18.668Z,9.30
2019-03-20T15:01:38.895Z,9.20
2019-03-20T15:04:12.011Z,9.20
2019-03-20T15:07:04.073Z,9.10
2019-03-20T15:12:13.149Z,9.10
2019-03-20T15:14:49.571Z,9.10
2019-03-20T15:17:21.501Z,9.00
2019-03-20T15:19:58.510Z,9.00
2019-03-20T15:30:05.943Z,9.10
2019-03-20T15:36:40.587Z,9.00
2019-03-20T15:39:08.844Z,8.90
2019-03-20T15:41:39.210Z,8.90
2019-03-20T15:44:10.096Z,8.90
2019-03-20T15:46:39.959Z,8.90
2019-03-20T15:49:12.471Z,8.90
2019-03-20T15:51:42.939Z,9.00
2019-03-20T15:54:13.130Z,9.10
2019-03-20T16:33:13.063Z,8.60
2019-03-20T16:35:50.740Z,8.50
2019-03-20T16:39:13.312Z,8.40
2019-03-20T16:42:31.433Z,8.30
2019-03-20T16:45:57.144Z,8.20
2019-03-20T16:49:39.509Z,8.10
2019-03-20T16:53:09.821Z,8.20
2019-03-20T16:56:35.827Z,8.20
2019-03-20T16:59:08.894Z,8.30
2019-03-20T17:01:58.139Z,8.70
2019-03-20T17:08:06.834Z,8.40
2019-03-20T17:10:39.275Z,8.10
2019-03-20T17:13:15.841Z,7.90
2019-03-20T17:16:25.260Z,7.70
2019-03-20T17:18:55.141Z,7.60
2019-03-20T17:26:39.646Z,7.30
2019-03-20T17:29:10.392Z,7.20
2019-03-20T18:13:47.857Z,6.20
2019-03-20T18:16:23.181Z,6.10
2019-03-20T18:26:44.538Z,6.00
2019-03-20T18:29:28.376Z,5.90
2019-03-20T18:32:01.299Z,5.90
2019-03-20T18:34:35.241Z,5.90
2019-03-20T18:37:19.663Z,5.90
2019-03-20T18:40:05.516Z,5.80
2019-03-20T18:42:40.908Z,5.80
2019-03-20T18:47:55.990Z,5.70
2019-03-20T18:50:53.899Z,5.70
2019-03-20T18:53:24.680Z,5.60
2019-03-20T18:56:02.881Z,5.50
2019-03-20T18:58:38.675Z,5.50
2019-03-20T19:01:10.091Z,5.50
2019-03-20T19:03:46.008Z,5.40
2019-03-20T19:06:20.869Z,5.40
2019-03-20T19:08:53.528Z,5.40
2019-03-20T19:11:26.389Z,5.40
2019-03-20T19:16:42.806Z,5.30
2019-03-20T19:19:41.158Z,5.20
2019-03-20T19:22:29.668Z,5.20
2019-03-20T19:33:15.749Z,5.00
2019-03-20T19:35:55.578Z,5.00
2019-03-20T19:38:34.887Z,5.00
2019-03-20T19:41:00.242Z,5.00
2019-03-20T19:43:31.577Z,4.90
2019-03-20T19:46:01.312Z,4.90
2019-03-20T19:48:31.060Z,4.90
2019-03-20T19:51:00.850Z,4.80
2019-03-20T19:53:31.933Z,4.80
2019-03-20T19:56:04.325Z,4.80
2019-03-20T19:58:33.907Z,4.80
2019-03-20T20:01:12.598Z,4.70
2019-03-20T20:03:48.676Z,4.70
2019-03-20T20:06:20.421Z,4.60
2019-03-20T20:08:53.890Z,4.60
2019-03-20T20:11:25.280Z,4.60
2019-03-20T20:13:55.806Z,4.60
2019-03-20T20:16:36.337Z,4.60
2019-03-20T20:19:14.089Z,4.50
2019-03-20T20:21:50.179Z,4.50
2019-03-20T20:24:21.451Z,4.40
2019-03-20T20:26:55.039Z,4.40
2019-03-20T20:29:26.658Z,4.30
2019-03-20T20:31:56.614Z,4.30
2019-03-20T20:34:26.389Z,4.30
2019-03-20T20:36:57.027Z,4.30
2019-03-20T20:39:26.874Z,4.30
2019-03-20T20:42:04.168Z,4.30
2019-03-20T20:44:38.423Z,4.20
2019-03-20T20:47:15.756Z,4.20
2019-03-20T20:49:46.155Z,4.10
2019-03-20T20:52:19.750Z,4.00
2019-03-20T20:54:50.846Z,3.90
2019-03-20T20:57:21.157Z,3.90
2019-03-20T20:59:51.732Z,3.90
2019-03-20T21:02:21.872Z,3.90
2019-03-20T21:04:53.471Z,3.90
2019-03-20T21:07:26.536Z,3.90
2019-03-20T21:09:56.106Z,3.90
2019-03-20T21:12:31.505Z,3.90
2019-03-20T21:15:04.419Z,3.70
2019-03-20T21:17:42.062Z,3.60
2019-03-20T21:20:16.183Z,3.70
2019-03-20T21:23:22.221Z,3.70
2019-03-20T21:25:54.001Z,3.60
2019-03-20T21:29:15.567Z,3.60
2019-03-20T21:32:00.690Z,3.60
2019-03-20T21:35:41.929Z,3.50
2019-03-20T21:41:36.652Z,3.40
2019-03-20T21:45:04.541Z,3.40
2019-03-20T21:47:45.848Z,3.40
2019-03-20T21:51:04.896Z,3.40
2019-03-20T21:54:34.269Z,3.40
2019-03-20T21:57:57.551Z,3.20
2019-03-20T22:00:59.519Z,3.20
2019-03-20T22:03:34.394Z,3.10
2019-03-20T22:06:32.025Z,3.10
2019-03-20T22:09:08.211Z,3.10
2019-03-20T22:12:12.846Z,3.10
2019-03-20T22:15:14.797Z,3.10
2019-03-20T22:18:36.676Z,3.10
2019-03-20T22:21:41.048Z,3.10
2019-03-20T22:30:25.262Z,3.10
2019-03-20T22:33:38.907Z,3.10
2019-03-20T22:36:16.195Z,3.10
2019-03-20T22:40:08.959Z,3.10
2019-03-20T22:43:30.326Z,3.10
2019-03-20T22:46:53.252Z,3.10
2019-03-20T22:50:05.989Z,3.00
2019-03-20T22:56:40.054Z,2.90
2019-03-20T23:03:34.272Z,2.90
2019-03-20T23:06:10.885Z,2.80
2019-03-20T23:08:51.219Z,2.80
2019-03-20T23:12:07.154Z,2.80
2019-03-20T23:15:01.221Z,2.80
2019-03-20T23:24:37.006Z,2.70
2019-03-20T23:27:37.737Z,2.70
2019-03-20T23:30:12.764Z,2.60
